sensor_id;sensor_type;location;lat;lon;timestamp;P1;durP1;ratioP1;P2;durP2;ratioP2
74674;SDS011;63200;48.810;12.352;2023-04-24T00:02:00;2.15;;;1.83;;
74674;SDS011;63200;48.810;12.352;2023-04-24T00:04:25;1.85;;;1.75;;
74674;SDS011;63200;48.810;12.352;2023-04-24T00:06:51;3.35;;;1.90;;
74674;SDS011;63200;48.810;12.352;2023-04-24T00:09:21;2.55;;;1.80;;
74674;SDS011;63200;48.810;12.352;2023-04-24T00:11:47;2.17;;;1.92;;
74674;SDS011;63200;48.810;12.352;2023-04-24T00:14:12;3.05;;;2.03;;
74674;SDS011;63200;48.810;12.352;2023-04-24T00:16:38;3.80;;;2.10;;
74674;SDS011;63200;48.810;12.352;2023-04-24T00:19:03;2.20;;;2.00;;
74674;SDS011;63200;48.810;12.352;2023-04-24T00:21:30;2.00;;;1.85;;
74674;SDS011;63200;48.810;12.352;2023-04-24T00:23:57;6.18;;;2.25;;
74674;SDS011;63200;48.810;12.352;2023-04-24T00:26:23;2.20;;;2.08;;
74674;SDS011;63200;48.810;12.352;2023-04-24T00:28:48;5.55;;;4.03;;
74674;SDS011;63200;48.810;12.352;2023-04-24T00:31:14;2.72;;;2.13;;
74674;SDS011;63200;48.810;12.352;2023-04-24T00:33:39;2.30;;;2.20;;
74674;SDS011;63200;48.810;12.352;2023-04-24T00:36:05;2.38;;;2.17;;
74674;SDS011;63200;48.810;12.352;2023-04-24T00:38:30;4.25;;;1.90;;
74674;SDS011;63200;48.810;12.352;2023-04-24T00:40:56;2.00;;;1.80;;
74674;SDS011;63200;48.810;12.352;2023-04-24T00:43:21;2.55;;;2.00;;
74674;SDS011;63200;48.810;12.352;2023-04-24T00:45:46;2.15;;;2.05;;
74674;SDS011;63200;48.810;12.352;2023-04-24T00:48:12;2.65;;;2.30;;
74674;SDS011;63200;48.810;12.352;2023-04-24T00:50:38;2.60;;;2.17;;
74674;SDS011;63200;48.810;12.352;2023-04-24T00:53:04;2.47;;;2.28;;
74674;SDS011;63200;48.810;12.352;2023-04-24T00:55:29;2.25;;;2.10;;
74674;SDS011;63200;48.810;12.352;2023-04-24T00:57:55;2.80;;;2.60;;
74674;SDS011;63200;48.810;12.352;2023-04-24T01:00:20;4.07;;;2.60;;
74674;SDS011;63200;48.810;12.352;2023-04-24T01:02:47;2.78;;;2.58;;
74674;SDS011;63200;48.810;12.352;2023-04-24T01:05:14;2.45;;;2.25;;
74674;SDS011;63200;48.810;12.352;2023-04-24T01:07:40;3.05;;;2.55;;
74674;SDS011;63200;48.810;12.352;2023-04-24T01:10:10;2.35;;;2.15;;
74674;SDS011;63200;48.810;12.352;2023-04-24T01:12:36;3.08;;;2.35;;
74674;SDS011;63200;48.810;12.352;2023-04-24T01:15:02;2.53;;;2.30;;
74674;SDS011;63200;48.810;12.352;2023-04-24T01:17:28;7.45;;;3.83;;
74674;SDS011;63200;48.810;12.352;2023-04-24T01:19:54;3.78;;;2.70;;
74674;SDS011;63200;48.810;12.352;2023-04-24T01:22:21;2.25;;;2.05;;
74674;SDS011;63200;48.810;12.352;2023-04-24T01:24:47;2.70;;;2.50;;
74674;SDS011;63200;48.810;12.352;2023-04-24T01:27:12;2.30;;;2.13;;
74674;SDS011;63200;48.810;12.352;2023-04-24T01:29:38;3.90;;;2.50;;
74674;SDS011;63200;48.810;12.352;2023-04-24T01:32:04;2.92;;;2.70;;
74674;SDS011;63200;48.810;12.352;2023-04-24T01:34:31;5.82;;;2.72;;
74674;SDS011;63200;48.810;12.352;2023-04-24T01:36:57;3.72;;;2.83;;
74674;SDS011;63200;48.810;12.352;2023-04-24T01:39:22;3.58;;;2.83;;
74674;SDS011;63200;48.810;12.352;2023-04-24T01:41:50;2.80;;;2.60;;
74674;SDS011;63200;48.810;12.352;2023-04-24T01:44:16;3.33;;;2.67;;
74674;SDS011;63200;48.810;12.352;2023-04-24T01:46:42;4.53;;;2.90;;
74674;SDS011;63200;48.810;12.352;2023-04-24T01:49:07;2.72;;;2.53;;
74674;SDS011;63200;48.810;12.352;2023-04-24T01:51:33;5.30;;;2.75;;
74674;SDS011;63200;48.810;12.352;2023-04-24T01:53:58;3.17;;;2.63;;
74674;SDS011;63200;48.810;12.352;2023-04-24T01:56:23;2.60;;;2.40;;
74674;SDS011;63200;48.810;12.352;2023-04-24T01:58:50;3.47;;;2.58;;
74674;SDS011;63200;48.810;12.352;2023-04-24T02:01:18;3.05;;;2.72;;
74674;SDS011;63200;48.810;12.352;2023-04-24T02:03:44;2.97;;;2.15;;
74674;SDS011;63200;48.810;12.352;2023-04-24T02:06:10;2.42;;;2.33;;
74674;SDS011;63200;48.810;12.352;2023-04-24T02:08:35;2.50;;;2.35;;
74674;SDS011;63200;48.810;12.352;2023-04-24T02:11:00;2.50;;;2.30;;
74674;SDS011;63200;48.810;12.352;2023-04-24T02:13:27;2.55;;;2.35;;
74674;SDS011;63200;48.810;12.352;2023-04-24T02:15:52;3.53;;;2.40;;
74674;SDS011;63200;48.810;12.352;2023-04-24T02:18:18;4.22;;;2.58;;
74674;SDS011;63200;48.810;12.352;2023-04-24T02:20:43;6.07;;;2.40;;
74674;SDS011;63200;48.810;12.352;2023-04-24T02:23:08;2.22;;;2.00;;
74674;SDS011;63200;48.810;12.352;2023-04-24T02:25:34;2.45;;;2.20;;
74674;SDS011;63200;48.810;12.352;2023-04-24T02:27:59;2.20;;;2.08;;
74674;SDS011;63200;48.810;12.352;2023-04-24T02:30:25;2.20;;;2.10;;
74674;SDS011;63200;48.810;12.352;2023-04-24T02:32:50;2.10;;;2.00;;
74674;SDS011;63200;48.810;12.352;2023-04-24T02:35:16;3.00;;;2.25;;
74674;SDS011;63200;48.810;12.352;2023-04-24T02:37:41;2.35;;;2.20;;
74674;SDS011;63200;48.810;12.352;2023-04-24T02:40:06;3.17;;;2.53;;
74674;SDS011;63200;48.810;12.352;2023-04-24T02:42:32;2.50;;;2.40;;
74674;SDS011;63200;48.810;12.352;2023-04-24T02:44:58;2.53;;;2.42;;
74674;SDS011;63200;48.810;12.352;2023-04-24T02:47:23;3.25;;;2.42;;
74674;SDS011;63200;48.810;12.352;2023-04-24T02:49:48;3.22;;;2.40;;
74674;SDS011;63200;48.810;12.352;2023-04-24T02:52:14;2.45;;;2.35;;
74674;SDS011;63200;48.810;12.352;2023-04-24T02:54:39;5.85;;;2.70;;
74674;SDS011;63200;48.810;12.352;2023-04-24T02:57:05;3.30;;;1.83;;
74674;SDS011;63200;48.810;12.352;2023-04-24T02:59:31;2.80;;;2.53;;
74674;SDS011;63200;48.810;12.352;2023-04-24T03:01:56;4.05;;;2.55;;
74674;SDS011;63200;48.810;12.352;2023-04-24T03:04:22;2.38;;;2.08;;
74674;SDS011;63200;48.810;12.352;2023-04-24T03:06:47;2.60;;;2.40;;
74674;SDS011;63200;48.810;12.352;2023-04-24T03:09:13;2.45;;;2.35;;
74674;SDS011;63200;48.810;12.352;2023-04-24T03:11:38;2.75;;;2.50;;
74674;SDS011;63200;48.810;12.352;2023-04-24T03:14:04;2.83;;;2.70;;
74674;SDS011;63200;48.810;12.352;2023-04-24T03:16:29;4.47;;;2.42;;
74674;SDS011;63200;48.810;12.352;2023-04-24T03:18:55;6.53;;;2.85;;
74674;SDS011;63200;48.810;12.352;2023-04-24T03:21:20;3.08;;;2.88;;
74674;SDS011;63200;48.810;12.352;2023-04-24T03:23:46;2.28;;;1.90;;
74674;SDS011;63200;48.810;12.352;2023-04-24T03:26:11;2.08;;;2.03;;
74674;SDS011;63200;48.810;12.352;2023-04-24T03:28:36;2.78;;;2.00;;
74674;SDS011;63200;48.810;12.352;2023-04-24T03:31:02;3.25;;;2.15;;
74674;SDS011;63200;48.810;12.352;2023-04-24T03:33:28;2.60;;;1.70;;
74674;SDS011;63200;48.810;12.352;2023-04-24T03:35:54;1.98;;;1.88;;
74674;SDS011;63200;48.810;12.352;2023-04-24T03:38:19;2.13;;;2.03;;
74674;SDS011;63200;48.810;12.352;2023-04-24T03:40:44;2.40;;;2.30;;
74674;SDS011;63200;48.810;12.352;2023-04-24T03:43:10;3.35;;;1.95;;
74674;SDS011;63200;48.810;12.352;2023-04-24T03:45:35;2.92;;;2.15;;
74674;SDS011;63200;48.810;12.352;2023-04-24T03:48:00;2.30;;;1.70;;
74674;SDS011;63200;48.810;12.352;2023-04-24T03:50:26;2.92;;;1.90;;
74674;SDS011;63200;48.810;12.352;2023-04-24T03:52:51;1.83;;;1.73;;
74674;SDS011;63200;48.810;12.352;2023-04-24T03:55:17;2.08;;;1.90;;
74674;SDS011;63200;48.810;12.352;2023-04-24T03:57:42;2.30;;;2.08;;
74674;SDS011;63200;48.810;12.352;2023-04-24T04:00:08;2.45;;;2.08;;
74674;SDS011;63200;48.810;12.352;2023-04-24T04:02:34;2.10;;;2.00;;
74674;SDS011;63200;48.810;12.352;2023-04-24T04:04:59;1.85;;;1.73;;
74674;SDS011;63200;48.810;12.352;2023-04-24T04:07:24;2.33;;;2.20;;
74674;SDS011;63200;48.810;12.352;2023-04-24T04:09:50;2.00;;;1.90;;
74674;SDS011;63200;48.810;12.352;2023-04-24T04:12:16;2.38;;;1.92;;
74674;SDS011;63200;48.810;12.352;2023-04-24T04:14:41;2.35;;;2.00;;
74674;SDS011;63200;48.810;12.352;2023-04-24T04:17:06;1.80;;;1.80;;
74674;SDS011;63200;48.810;12.352;2023-04-24T04:19:32;2.58;;;1.90;;
74674;SDS011;63200;48.810;12.352;2023-04-24T04:21:57;1.65;;;1.55;;
74674;SDS011;63200;48.810;12.352;2023-04-24T04:24:23;3.97;;;1.77;;
74674;SDS011;63200;48.810;12.352;2023-04-24T04:26:49;2.47;;;2.05;;
74674;SDS011;63200;48.810;12.352;2023-04-24T04:29:16;2.38;;;2.08;;
74674;SDS011;63200;48.810;12.352;2023-04-24T04:31:42;2.17;;;2.00;;
74674;SDS011;63200;48.810;12.352;2023-04-24T04:34:08;2.45;;;2.15;;
74674;SDS011;63200;48.810;12.352;2023-04-24T04:36:34;2.15;;;2.05;;
74674;SDS011;63200;48.810;12.352;2023-04-24T04:39:01;2.10;;;2.00;;
74674;SDS011;63200;48.810;12.352;2023-04-24T04:41:27;1.80;;;1.70;;
74674;SDS011;63200;48.810;12.352;2023-04-24T04:43:53;2.35;;;2.00;;
74674;SDS011;63200;48.810;12.352;2023-04-24T04:46:18;1.63;;;1.63;;
74674;SDS011;63200;48.810;12.352;2023-04-24T04:48:44;2.17;;;1.90;;
74674;SDS011;63200;48.810;12.352;2023-04-24T04:51:09;4.40;;;2.30;;
74674;SDS011;63200;48.810;12.352;2023-04-24T04:53:34;4.28;;;2.58;;
74674;SDS011;63200;48.810;12.352;2023-04-24T04:56:00;2.10;;;2.00;;
74674;SDS011;63200;48.810;12.352;2023-04-24T04:58:25;2.47;;;2.05;;
74674;SDS011;63200;48.810;12.352;2023-04-24T05:00:51;2.30;;;1.75;;
74674;SDS011;63200;48.810;12.352;2023-04-24T05:03:17;7.95;;;2.58;;
74674;SDS011;63200;48.810;12.352;2023-04-24T05:05:42;2.20;;;1.80;;
74674;SDS011;63200;48.810;12.352;2023-04-24T05:08:08;1.80;;;1.70;;
74674;SDS011;63200;48.810;12.352;2023-04-24T05:10:33;2.20;;;1.90;;
74674;SDS011;63200;48.810;12.352;2023-04-24T05:12:59;9.45;;;4.28;;
74674;SDS011;63200;48.810;12.352;2023-04-24T05:15:24;2.42;;;2.20;;
74674;SDS011;63200;48.810;12.352;2023-04-24T05:17:50;2.83;;;1.98;;
74674;SDS011;63200;48.810;12.352;2023-04-24T05:20:15;4.10;;;2.40;;
74674;SDS011;63200;48.810;12.352;2023-04-24T05:22:41;5.25;;;2.17;;
74674;SDS011;63200;48.810;12.352;2023-04-24T05:25:07;2.55;;;2.00;;
74674;SDS011;63200;48.810;12.352;2023-04-24T05:27:32;4.45;;;2.10;;
74674;SDS011;63200;48.810;12.352;2023-04-24T05:29:58;2.92;;;2.17;;
74674;SDS011;63200;48.810;12.352;2023-04-24T05:32:23;2.25;;;1.80;;
74674;SDS011;63200;48.810;12.352;2023-04-24T05:34:48;3.05;;;1.75;;
74674;SDS011;63200;48.810;12.352;2023-04-24T05:37:13;2.13;;;1.40;;
74674;SDS011;63200;48.810;12.352;2023-04-24T05:39:39;2.25;;;1.60;;
74674;SDS011;63200;48.810;12.352;2023-04-24T05:42:06;3.15;;;1.35;;
74674;SDS011;63200;48.810;12.352;2023-04-24T05:44:31;2.67;;;1.52;;
74674;SDS011;63200;48.810;12.352;2023-04-24T05:46:56;1.55;;;1.30;;
74674;SDS011;63200;48.810;12.352;2023-04-24T05:49:22;1.55;;;1.45;;
74674;SDS011;63200;48.810;12.352;2023-04-24T05:51:47;1.05;;;1.05;;
74674;SDS011;63200;48.810;12.352;2023-04-24T05:54:12;1.20;;;1.10;;
74674;SDS011;63200;48.810;12.352;2023-04-24T05:56:38;1.55;;;1.27;;
74674;SDS011;63200;48.810;12.352;2023-04-24T05:59:04;1.30;;;1.30;;
74674;SDS011;63200;48.810;12.352;2023-04-24T06:01:29;1.80;;;1.70;;
74674;SDS011;63200;48.810;12.352;2023-04-24T06:03:56;1.88;;;1.60;;
74674;SDS011;63200;48.810;12.352;2023-04-24T06:06:21;1.60;;;1.50;;
74674;SDS011;63200;48.810;12.352;2023-04-24T06:08:47;1.40;;;1.40;;
74674;SDS011;63200;48.810;12.352;2023-04-24T06:11:12;1.45;;;1.45;;
74674;SDS011;63200;48.810;12.352;2023-04-24T06:13:37;1.45;;;1.25;;
74674;SDS011;63200;48.810;12.352;2023-04-24T06:16:03;1.42;;;1.38;;
74674;SDS011;63200;48.810;12.352;2023-04-24T06:18:28;1.10;;;1.10;;
74674;SDS011;63200;48.810;12.352;2023-04-24T06:20:54;2.28;;;1.30;;
74674;SDS011;63200;48.810;12.352;2023-04-24T06:23:20;1.40;;;1.30;;
74674;SDS011;63200;48.810;12.352;2023-04-24T06:25:45;3.88;;;1.67;;
74674;SDS011;63200;48.810;12.352;2023-04-24T06:28:11;1.35;;;1.27;;
74674;SDS011;63200;48.810;12.352;2023-04-24T06:30:36;1.75;;;1.30;;
74674;SDS011;63200;48.810;12.352;2023-04-24T06:33:01;1.83;;;1.73;;
74674;SDS011;63200;48.810;12.352;2023-04-24T06:35:27;2.00;;;1.20;;
74674;SDS011;63200;48.810;12.352;2023-04-24T06:37:52;1.38;;;1.35;;
74674;SDS011;63200;48.810;12.352;2023-04-24T06:40:17;2.97;;;1.40;;
74674;SDS011;63200;48.810;12.352;2023-04-24T06:42:45;1.67;;;1.50;;
74674;SDS011;63200;48.810;12.352;2023-04-24T06:45:11;3.00;;;1.40;;
74674;SDS011;63200;48.810;12.352;2023-04-24T06:47:36;1.40;;;1.40;;
74674;SDS011;63200;48.810;12.352;2023-04-24T06:50:02;3.08;;;1.33;;
74674;SDS011;63200;48.810;12.352;2023-04-24T06:52:28;2.10;;;1.40;;
74674;SDS011;63200;48.810;12.352;2023-04-24T06:55:00;2.88;;;1.70;;
74674;SDS011;63200;48.810;12.352;2023-04-24T06:57:27;1.27;;;1.10;;
74674;SDS011;63200;48.810;12.352;2023-04-24T06:59:52;2.97;;;1.40;;
74674;SDS011;63200;48.810;12.352;2023-04-24T07:02:18;1.40;;;1.40;;
74674;SDS011;63200;48.810;12.352;2023-04-24T07:04:43;2.95;;;1.25;;
74674;SDS011;63200;48.810;12.352;2023-04-24T07:07:08;1.33;;;1.27;;
74674;SDS011;63200;48.810;12.352;2023-04-24T07:09:37;2.15;;;1.42;;
74674;SDS011;63200;48.810;12.352;2023-04-24T07:12:06;1.30;;;1.30;;
74674;SDS011;63200;48.810;12.352;2023-04-24T07:14:32;1.10;;;1.10;;
74674;SDS011;63200;48.810;12.352;2023-04-24T07:16:58;1.45;;;1.30;;
74674;SDS011;63200;48.810;12.352;2023-04-24T07:19:23;2.65;;;1.45;;
74674;SDS011;63200;48.810;12.352;2023-04-24T07:21:49;1.38;;;1.27;;
74674;SDS011;63200;48.810;12.352;2023-04-24T07:24:14;1.70;;;1.60;;
74674;SDS011;63200;48.810;12.352;2023-04-24T07:26:40;1.30;;;1.20;;
74674;SDS011;63200;48.810;12.352;2023-04-24T07:29:05;2.30;;;1.70;;
74674;SDS011;63200;48.810;12.352;2023-04-24T07:31:31;1.50;;;1.40;;
74674;SDS011;63200;48.810;12.352;2023-04-24T07:33:57;2.17;;;1.50;;
74674;SDS011;63200;48.810;12.352;2023-04-24T07:36:23;1.40;;;1.30;;
74674;SDS011;63200;48.810;12.352;2023-04-24T07:38:49;1.40;;;1.30;;
74674;SDS011;63200;48.810;12.352;2023-04-24T07:41:15;1.73;;;1.35;;
74674;SDS011;63200;48.810;12.352;2023-04-24T07:43:41;4.53;;;2.38;;
74674;SDS011;63200;48.810;12.352;2023-04-24T07:46:07;1.58;;;1.48;;
74674;SDS011;63200;48.810;12.352;2023-04-24T07:48:33;1.40;;;1.20;;
74674;SDS011;63200;48.810;12.352;2023-04-24T07:50:58;1.40;;;1.23;;
74674;SDS011;63200;48.810;12.352;2023-04-24T07:53:24;0.90;;;0.90;;
74674;SDS011;63200;48.810;12.352;2023-04-24T07:55:49;1.23;;;1.13;;
74674;SDS011;63200;48.810;12.352;2023-04-24T07:58:14;2.22;;;1.15;;
74674;SDS011;63200;48.810;12.352;2023-04-24T08:00:40;1.20;;;1.00;;
74674;SDS011;63200;48.810;12.352;2023-04-24T08:03:05;2.13;;;1.10;;
74674;SDS011;63200;48.810;12.352;2023-04-24T08:05:31;1.63;;;1.27;;
74674;SDS011;63200;48.810;12.352;2023-04-24T08:07:56;1.85;;;0.88;;
74674;SDS011;63200;48.810;12.352;2023-04-24T08:10:22;2.22;;;0.90;;
74674;SDS011;63200;48.810;12.352;2023-04-24T08:12:48;1.00;;;1.00;;
74674;SDS011;63200;48.810;12.352;2023-04-24T08:15:13;1.05;;;1.05;;
74674;SDS011;63200;48.810;12.352;2023-04-24T08:17:39;1.85;;;0.90;;
74674;SDS011;63200;48.810;12.352;2023-04-24T08:20:05;1.40;;;0.70;;
74674;SDS011;63200;48.810;12.352;2023-04-24T08:22:35;5.78;;;1.17;;
74674;SDS011;63200;48.810;12.352;2023-04-24T08:25:00;2.10;;;1.10;;
74674;SDS011;63200;48.810;12.352;2023-04-24T08:27:26;1.20;;;1.15;;
74674;SDS011;63200;48.810;12.352;2023-04-24T08:29:56;1.25;;;0.80;;
74674;SDS011;63200;48.810;12.352;2023-04-24T08:32:22;1.20;;;1.20;;
74674;SDS011;63200;48.810;12.352;2023-04-24T08:34:47;1.85;;;1.00;;
74674;SDS011;63200;48.810;12.352;2023-04-24T08:37:13;1.10;;;1.10;;
74674;SDS011;63200;48.810;12.352;2023-04-24T08:39:38;0.50;;;0.50;;
74674;SDS011;63200;48.810;12.352;2023-04-24T08:42:04;1.02;;;1.00;;
74674;SDS011;63200;48.810;12.352;2023-04-24T08:44:32;1.02;;;0.90;;
74674;SDS011;63200;48.810;12.352;2023-04-24T08:46:59;0.52;;;0.52;;
74674;SDS011;63200;48.810;12.352;2023-04-24T08:49:26;1.35;;;1.27;;
74674;SDS011;63200;48.810;12.352;2023-04-24T08:51:53;1.00;;;1.00;;
74674;SDS011;63200;48.810;12.352;2023-04-24T08:54:18;0.77;;;0.77;;
74674;SDS011;63200;48.810;12.352;2023-04-24T08:56:44;1.08;;;1.00;;
74674;SDS011;63200;48.810;12.352;2023-04-24T08:59:11;1.33;;;0.90;;
74674;SDS011;63200;48.810;12.352;2023-04-24T09:01:37;0.80;;;0.80;;
74674;SDS011;63200;48.810;12.352;2023-04-24T09:04:04;0.82;;;0.82;;
74674;SDS011;63200;48.810;12.352;2023-04-24T09:06:32;0.90;;;0.90;;
74674;SDS011;63200;48.810;12.352;2023-04-24T09:09:01;1.30;;;0.90;;
74674;SDS011;63200;48.810;12.352;2023-04-24T09:11:28;0.65;;;0.65;;
74674;SDS011;63200;48.810;12.352;2023-04-24T09:13:55;2.88;;;1.00;;
74674;SDS011;63200;48.810;12.352;2023-04-24T09:16:21;2.28;;;1.02;;
74674;SDS011;63200;48.810;12.352;2023-04-24T09:18:49;0.90;;;0.90;;
74674;SDS011;63200;48.810;12.352;2023-04-24T09:21:14;0.98;;;0.98;;
74674;SDS011;63200;48.810;12.352;2023-04-24T09:23:39;2.58;;;1.13;;
74674;SDS011;63200;48.810;12.352;2023-04-24T09:26:05;1.20;;;1.20;;
74674;SDS011;63200;48.810;12.352;2023-04-24T09:28:32;1.10;;;1.10;;
74674;SDS011;63200;48.810;12.352;2023-04-24T09:31:03;1.20;;;1.20;;
74674;SDS011;63200;48.810;12.352;2023-04-24T09:33:29;2.08;;;1.98;;
74674;SDS011;63200;48.810;12.352;2023-04-24T09:35:54;1.30;;;1.00;;
74674;SDS011;63200;48.810;12.352;2023-04-24T09:38:29;1.80;;;1.10;;
74674;SDS011;63200;48.810;12.352;2023-04-24T09:41:03;1.08;;;1.08;;
74674;SDS011;63200;48.810;12.352;2023-04-24T09:43:31;3.13;;;1.30;;
74674;SDS011;63200;48.810;12.352;2023-04-24T09:45:57;1.33;;;1.23;;
74674;SDS011;63200;48.810;12.352;2023-04-24T09:48:30;1.67;;;1.50;;
74674;SDS011;63200;48.810;12.352;2023-04-24T09:50:57;2.60;;;1.20;;
74674;SDS011;63200;48.810;12.352;2023-04-24T09:53:27;1.45;;;1.35;;
74674;SDS011;63200;48.810;12.352;2023-04-24T09:55:53;1.75;;;1.42;;
74674;SDS011;63200;48.810;12.352;2023-04-24T09:58:25;3.65;;;1.00;;
74674;SDS011;63200;48.810;12.352;2023-04-24T10:00:54;6.22;;;1.00;;
74674;SDS011;63200;48.810;12.352;2023-04-24T10:03:23;1.00;;;1.00;;
74674;SDS011;63200;48.810;12.352;2023-04-24T10:05:51;0.90;;;0.90;;
74674;SDS011;63200;48.810;12.352;2023-04-24T10:08:16;2.72;;;0.95;;
74674;SDS011;63200;48.810;12.352;2023-04-24T10:10:42;1.55;;;1.00;;
74674;SDS011;63200;48.810;12.352;2023-04-24T10:13:09;2.17;;;1.00;;
74674;SDS011;63200;48.810;12.352;2023-04-24T10:15:36;0.77;;;0.77;;
74674;SDS011;63200;48.810;12.352;2023-04-24T10:18:02;3.67;;;0.85;;
74674;SDS011;63200;48.810;12.352;2023-04-24T10:20:31;1.38;;;0.70;;
74674;SDS011;63200;48.810;12.352;2023-04-24T10:22:57;2.55;;;1.02;;
74674;SDS011;63200;48.810;12.352;2023-04-24T10:25:25;1.40;;;1.30;;
74674;SDS011;63200;48.810;12.352;2023-04-24T10:27:52;1.42;;;1.33;;
74674;SDS011;63200;48.810;12.352;2023-04-24T10:30:22;0.75;;;0.75;;
74674;SDS011;63200;48.810;12.352;2023-04-24T10:32:47;1.00;;;1.00;;
74674;SDS011;63200;48.810;12.352;2023-04-24T10:35:13;0.82;;;0.82;;
74674;SDS011;63200;48.810;12.352;2023-04-24T10:37:44;1.02;;;1.00;;
74674;SDS011;63200;48.810;12.352;2023-04-24T10:40:35;1.73;;;1.33;;
74674;SDS011;63200;48.810;12.352;2023-04-24T10:43:02;1.10;;;1.10;;
74674;SDS011;63200;48.810;12.352;2023-04-24T10:45:31;0.98;;;0.98;;
74674;SDS011;63200;48.810;12.352;2023-04-24T10:47:57;1.67;;;1.15;;
74674;SDS011;63200;48.810;12.352;2023-04-24T10:50:26;1.35;;;1.35;;
74674;SDS011;63200;48.810;12.352;2023-04-24T10:52:53;1.73;;;0.93;;
74674;SDS011;63200;48.810;12.352;2023-04-24T10:55:39;0.80;;;0.80;;
74674;SDS011;63200;48.810;12.352;2023-04-24T10:58:06;1.17;;;1.05;;
74674;SDS011;63200;48.810;12.352;2023-04-24T11:00:31;1.10;;;1.10;;
74674;SDS011;63200;48.810;12.352;2023-04-24T11:02:57;2.45;;;1.15;;
74674;SDS011;63200;48.810;12.352;2023-04-24T11:05:24;1.23;;;0.80;;
74674;SDS011;63200;48.810;12.352;2023-04-24T11:08:25;1.42;;;1.33;;
74674;SDS011;63200;48.810;12.352;2023-04-24T11:13:23;1.08;;;1.08;;
74674;SDS011;63200;48.810;12.352;2023-04-24T11:18:41;3.88;;;1.60;;
74674;SDS011;63200;48.810;12.352;2023-04-24T11:21:16;1.70;;;1.60;;
74674;SDS011;63200;48.810;12.352;2023-04-24T11:23:42;1.45;;;1.45;;
74674;SDS011;63200;48.810;12.352;2023-04-24T11:26:17;1.75;;;1.10;;
74674;SDS011;63200;48.810;12.352;2023-04-24T11:28:45;1.38;;;1.38;;
74674;SDS011;63200;48.810;12.352;2023-04-24T11:34:07;2.58;;;1.10;;
74674;SDS011;63200;48.810;12.352;2023-04-24T11:36:35;1.55;;;1.55;;
74674;SDS011;63200;48.810;12.352;2023-04-24T11:39:00;1.52;;;1.40;;
74674;SDS011;63200;48.810;12.352;2023-04-24T11:41:26;1.98;;;1.80;;
74674;SDS011;63200;48.810;12.352;2023-04-24T11:43:53;2.90;;;2.70;;
74674;SDS011;63200;48.810;12.352;2023-04-24T11:46:23;1.60;;;1.23;;
74674;SDS011;63200;48.810;12.352;2023-04-24T11:48:52;1.48;;;1.38;;
74674;SDS011;63200;48.810;12.352;2023-04-24T11:51:18;1.25;;;1.20;;
74674;SDS011;63200;48.810;12.352;2023-04-24T11:53:43;0.90;;;0.90;;
74674;SDS011;63200;48.810;12.352;2023-04-24T11:56:09;0.40;;;0.40;;
74674;SDS011;63200;48.810;12.352;2023-04-24T11:58:34;0.65;;;0.60;;
74674;SDS011;63200;48.810;12.352;2023-04-24T12:01:01;0.45;;;0.45;;
74674;SDS011;63200;48.810;12.352;2023-04-24T12:03:26;1.08;;;0.73;;
74674;SDS011;63200;48.810;12.352;2023-04-24T12:05:51;0.88;;;0.88;;
74674;SDS011;63200;48.810;12.352;2023-04-24T12:08:27;0.82;;;0.82;;
74674;SDS011;63200;48.810;12.352;2023-04-24T12:10:53;1.73;;;1.00;;
74674;SDS011;63200;48.810;12.352;2023-04-24T12:13:18;1.55;;;1.45;;
74674;SDS011;63200;48.810;12.352;2023-04-24T12:15:44;0.60;;;0.60;;
74674;SDS011;63200;48.810;12.352;2023-04-24T12:18:11;0.77;;;0.77;;
74674;SDS011;63200;48.810;12.352;2023-04-24T12:20:37;3.45;;;1.02;;
74674;SDS011;63200;48.810;12.352;2023-04-24T12:23:03;1.10;;;1.10;;
74674;SDS011;63200;48.810;12.352;2023-04-24T12:25:29;0.88;;;0.88;;
74674;SDS011;63200;48.810;12.352;2023-04-24T12:30:28;0.70;;;0.70;;
74674;SDS011;63200;48.810;12.352;2023-04-24T12:32:56;0.75;;;0.75;;
74674;SDS011;63200;48.810;12.352;2023-04-24T12:35:23;0.68;;;0.68;;
74674;SDS011;63200;48.810;12.352;2023-04-24T12:37:50;0.75;;;0.75;;
74674;SDS011;63200;48.810;12.352;2023-04-24T12:40:16;0.80;;;0.80;;
74674;SDS011;63200;48.810;12.352;2023-04-24T12:42:43;1.10;;;1.10;;
74674;SDS011;63200;48.810;12.352;2023-04-24T12:45:10;1.95;;;0.88;;
74674;SDS011;63200;48.810;12.352;2023-04-24T12:47:37;1.63;;;1.00;;
74674;SDS011;63200;48.810;12.352;2023-04-24T12:50:03;1.00;;;1.00;;
74674;SDS011;63200;48.810;12.352;2023-04-24T12:52:30;0.80;;;0.80;;
74674;SDS011;63200;48.810;12.352;2023-04-24T12:54:56;0.80;;;0.80;;
74674;SDS011;63200;48.810;12.352;2023-04-24T12:57:23;1.48;;;1.10;;
74674;SDS011;63200;48.810;12.352;2023-04-24T12:59:51;1.77;;;1.10;;
74674;SDS011;63200;48.810;12.352;2023-04-24T13:02:19;2.47;;;1.17;;
74674;SDS011;63200;48.810;12.352;2023-04-24T13:04:45;1.33;;;1.20;;
74674;SDS011;63200;48.810;12.352;2023-04-24T13:07:12;1.25;;;1.15;;
74674;SDS011;63200;48.810;12.352;2023-04-24T13:09:38;1.20;;;1.20;;
74674;SDS011;63200;48.810;12.352;2023-04-24T13:12:04;1.00;;;1.00;;
74674;SDS011;63200;48.810;12.352;2023-04-24T13:14:30;1.10;;;1.05;;
74674;SDS011;63200;48.810;12.352;2023-04-24T13:16:56;1.38;;;1.20;;
74674;SDS011;63200;48.810;12.352;2023-04-24T13:19:23;1.00;;;1.00;;
74674;SDS011;63200;48.810;12.352;2023-04-24T13:21:50;1.13;;;1.13;;
74674;SDS011;63200;48.810;12.352;2023-04-24T13:24:15;1.00;;;1.00;;
74674;SDS011;63200;48.810;12.352;2023-04-24T13:26:41;3.45;;;0.98;;
74674;SDS011;63200;48.810;12.352;2023-04-24T13:29:06;3.40;;;1.05;;
74674;SDS011;63200;48.810;12.352;2023-04-24T13:31:31;0.95;;;0.95;;
74674;SDS011;63200;48.810;12.352;2023-04-24T13:33:57;1.70;;;1.05;;
74674;SDS011;63200;48.810;12.352;2023-04-24T13:36:22;1.35;;;1.23;;
74674;SDS011;63200;48.810;12.352;2023-04-24T13:38:47;0.80;;;0.80;;
74674;SDS011;63200;48.810;12.352;2023-04-24T13:41:13;0.85;;;0.85;;
74674;SDS011;63200;48.810;12.352;2023-04-24T13:43:38;0.95;;;0.95;;
74674;SDS011;63200;48.810;12.352;2023-04-24T13:46:03;2.85;;;1.00;;
74674;SDS011;63200;48.810;12.352;2023-04-24T13:48:29;1.02;;;0.80;;
74674;SDS011;63200;48.810;12.352;2023-04-24T13:50:55;1.10;;;1.10;;
74674;SDS011;63200;48.810;12.352;2023-04-24T13:53:20;0.85;;;0.82;;
74674;SDS011;63200;48.810;12.352;2023-04-24T13:55:46;0.98;;;0.90;;
74674;SDS011;63200;48.810;12.352;2023-04-24T13:58:11;1.45;;;0.82;;
74674;SDS011;63200;48.810;12.352;2023-04-24T14:00:36;3.88;;;0.90;;
74674;SDS011;63200;48.810;12.352;2023-04-24T14:03:02;1.38;;;0.50;;
74674;SDS011;63200;48.810;12.352;2023-04-24T14:05:27;1.63;;;0.73;;
74674;SDS011;63200;48.810;12.352;2023-04-24T14:07:53;0.77;;;0.77;;
74674;SDS011;63200;48.810;12.352;2023-04-24T14:10:18;0.88;;;0.88;;
74674;SDS011;63200;48.810;12.352;2023-04-24T14:12:43;1.75;;;1.00;;
74674;SDS011;63200;48.810;12.352;2023-04-24T14:15:09;0.90;;;0.90;;
74674;SDS011;63200;48.810;12.352;2023-04-24T14:17:36;0.80;;;0.80;;
74674;SDS011;63200;48.810;12.352;2023-04-24T14:20:02;1.52;;;1.38;;
74674;SDS011;63200;48.810;12.352;2023-04-24T14:22:29;1.10;;;1.08;;
74674;SDS011;63200;48.810;12.352;2023-04-24T14:24:54;3.13;;;0.65;;
74674;SDS011;63200;48.810;12.352;2023-04-24T14:27:19;2.47;;;1.27;;
74674;SDS011;63200;48.810;12.352;2023-04-24T14:29:45;1.42;;;0.90;;
74674;SDS011;63200;48.810;12.352;2023-04-24T14:32:10;0.98;;;0.98;;
74674;SDS011;63200;48.810;12.352;2023-04-24T14:34:36;0.85;;;0.85;;
74674;SDS011;63200;48.810;12.352;2023-04-24T14:37:01;1.23;;;0.85;;
74674;SDS011;63200;48.810;12.352;2023-04-24T14:39:27;0.98;;;0.98;;